• Join FlightAware (Why Join?)
  • Login
  • US Flag 
06:15PM EST


 

Airport Tracker/Info


-or-


 

Live Flight TrackerFlight Track Log ✈ SWA2010 ✈ 24-Feb-2012 ✈ KDEN - KHOU

Flight Track Log - Related Links

Times and Time Zones

All times are in EST time to prevent confusion due to time zone crossing. See the SWA2010 flight status page for this flight to view local times or setup timezone preferences in your user account.

Time Position Orientation Groundspeed Altitude Reporting Facility
EST Latitude Longitude Course Direction KTS MPH feet Rate Location/Type
10:49PM 39.8000 -104.6500 169° South 195 224 7,200  Level Denver TRACON
10:50PM 39.7333 -104.6333 166° South 251 289 9,100 1,920 Climbing Denver TRACON
10:51PM 39.6833 -104.6167 175° South 280 322 10,700 1,860 Climbing Denver TRACON
10:53PM 39.5222 -104.5969 174° South 329 379 14,000 1,800 Climbing Denver Center
10:54PM 39.4178 -104.5836 174° South 368 423 15,800 1,980 Climbing Denver Center
10:55PM 39.3089 -104.5678 174° South 389 448 18,000 2,160 Climbing Denver Center
10:56PM 39.2003 -104.5522 174° South 394 453 20,200 1,800 Climbing Denver Center
10:57PM 39.0833 -104.5367 172° South 409 471 21,700 1,560 Climbing Denver Center
10:58PM 38.9639 -104.5158 178° South 428 493 23,300 1,500 Climbing Denver Center
10:59PM 38.8533 -104.5108 172° South 433 498 24,700 1,500 Climbing Denver Center
11:00PM 38.7322 -104.4878 174° South 443 510 26,400 1,620 Climbing Denver Center
11:01PM 38.6067 -104.4700 167° South 453 521 28,000 1,380 Climbing Denver Center
11:02PM 38.4808 -104.4339 132° Southeast 458 527 29,200 1,260 Climbing Denver Center
11:03PM 38.3933 -104.3117 131° Southeast 448 516 30,500 900 Climbing Denver Center
11:04PM 38.3075 -104.1875 130° Southeast 470 541 31,000 240 Climbing Denver Center
11:05PM 38.2128 -104.0453 130° Southeast 475 547 31,000  Level Denver Center
11:06PM 38.1244 -103.9136 131° Southeast 475 547 31,000  Level Denver Center
11:07PM 38.0447 -103.7978 129° Southeast 482 555 31,000  Level Denver Center
11:08PM 37.9603 -103.6667 131° Southeast 482 555 31,000 120 Level Denver Center
11:09PM 37.8628 -103.5233 130° Southeast 482 555 31,300 720 Climbing Denver Center
11:10PM 37.7758 -103.3928 131° Southeast 489 563 32,500 960 Climbing Denver Center
11:12PM 37.5633 -103.0833 131° Southeast 490 564 34,800 660 Climbing Albuquerque Center
11:13PM 37.4731 -102.9547 131° Southeast 495 570 35,000 60 Climbing Albuquerque Center
11:14PM 37.3761 -102.8142 131° Southeast 490 564 35,000  Level Albuquerque Center
11:15PM 37.2856 -102.6811 132° Southeast 499 574 35,000  Level Albuquerque Center
11:17PM 37.1244 -102.4544 132° Southeast 480 552 35,000  Level Kansas City Center
11:19PM 36.9892 -102.2675 130° Southeast 482 555 35,000  Level Albuquerque Center
11:20PM 36.9111 -102.1531 132° Southeast 487 560 35,000  Level Albuquerque Center
11:21PM 36.8178 -102.0244 131° Southeast 499 574 35,000  Level Albuquerque Center
11:22PM 36.7197 -101.8836 131° Southeast 494 568 35,000  Level Albuquerque Center
11:23PM 36.6281 -101.7528 133° Southeast 494 568 35,000  Level Albuquerque Center
11:24PM 36.5392 -101.6350 131° Southeast 487 560 35,000  Level Albuquerque Center
11:25PM 36.4469 -101.5022 132° Southeast 498 573 35,000  Level Albuquerque Center
11:26PM 36.3531 -101.3725 133° Southeast 504 580 35,000  Level Albuquerque Center
11:27PM 36.2725 -101.2656 131° Southeast 498 573 35,000  Level Albuquerque Center
11:28PM 36.1711 -101.1214 133° Southeast 492 566 35,000  Level Albuquerque Center
11:29PM 36.0792 -100.9975 132° Southeast 492 566 35,000  Level Albuquerque Center
11:30PM 35.9889 -100.8739 132° Southeast 492 566 35,000  Level Albuquerque Center
11:31PM 35.8989 -100.7506 133° Southeast 492 566 35,000  Level Albuquerque Center
11:32PM 35.8086 -100.6300 132° Southeast 487 560 35,000  Level Albuquerque Center
11:34PM 35.6253 -100.3833 132° Southeast 488 562 35,000 -60 Level Fort Worth Center
11:35PM 35.5342 -100.2603 133° Southeast 483 556 34,900 -600 Descending Fort Worth Center
11:36PM 35.4431 -100.1400 132° Southeast 483 556 33,900 -1,020 Descending Fort Worth Center
11:37PM 35.3561 -100.0225 133° Southeast 476 548 32,900 -960 Descending Fort Worth Center
11:38PM 35.2644 -99.9028 134° Southeast 476 548 32,000 -960 Descending Fort Worth Center
11:39PM 35.1750 -99.7883 133° Southeast 476 548 31,000 -540 Descending Fort Worth Center
11:40PM 35.0856 -99.6692 133° Southeast 476 548 31,000  Level Fort Worth Center
11:41PM 34.9958 -99.5528 133° Southeast 476 548 31,000  Level Fort Worth Center
11:42PM 34.9100 -99.4417 133° Southeast 471 542 31,000  Level Fort Worth Center
11:43PM 34.8200 -99.3256 133° Southeast 460 529 31,000 -360 Level Fort Worth Center
11:44PM 34.7319 -99.2125 133° Southeast 460 529 30,300 -840 Descending Fort Worth Center
11:45PM 34.6419 -99.0944 132° Southeast 460 529 29,400 -660 Descending Fort Worth Center
11:46PM 34.5558 -98.9794 134° Southeast 465 535 29,000 -240 Descending Fort Worth Center
11:47PM 34.4653 -98.8644 133° Southeast 465 535 29,000  Level Fort Worth Center
11:48PM 34.3728 -98.7444 133° Southeast 465 535 29,000  Level Fort Worth Center
11:49PM 34.2822 -98.6275 134° Southeast 465 535 29,000  Level Fort Worth Center
11:50PM 34.1894 -98.5131 135° Southeast 465 535 29,000  Level Fort Worth Center
11:51PM 34.0964 -98.4017 136° Southeast 470 541 29,000  Level Fort Worth Center
11:52PM 34.0011 -98.2903 147° Southeast 470 541 29,000  Level Fort Worth Center
11:53PM 33.8828 -98.1992 152° Southeast 476 548 29,000  Level Fort Worth Center
11:54PM 33.7686 -98.1256 152° Southeast 465 535 29,000  Level Fort Worth Center
11:55PM 33.6583 -98.0547 152° Southeast 453 521 29,000  Level Fort Worth Center
11:56PM 33.5458 -97.9842 152° Southeast 453 521 29,000  Level Fort Worth Center
11:57PM 33.4378 -97.9139 153° Southeast 444 511 29,000  Level Fort Worth Center
11:58PM 33.3272 -97.8461 152° Southeast 439 505 29,000  Level Fort Worth Center
11:59PM 33.2189 -97.7758 153° Southeast 434 499 29,000  Level Fort Worth Center
12:00AM 33.1106 -97.7086 152° Southeast 434 499 29,000  Level Fort Worth Center
12:01AM 33.0044 -97.6414 152° Southeast 434 499 29,000  Level Fort Worth Center
12:02AM 32.9000 -97.5742 153° Southeast 427 491 29,000  Level Fort Worth Center
12:03AM 32.7917 -97.5072 152° Southeast 432 497 29,000  Level Fort Worth Center
12:04AM 32.6808 -97.4381 152° Southeast 432 497 29,000  Level Fort Worth Center
12:05AM 32.5725 -97.3692 152° Southeast 432 497 29,000  Level Fort Worth Center
12:06AM 32.4639 -97.3003 153° Southeast 432 497 29,000  Level Fort Worth Center
12:07AM 32.3511 -97.2314 152° Southeast 438 504 29,000  Level Fort Worth Center
12:08AM 32.2444 -97.1653 152° Southeast 438 504 29,000  Level Fort Worth Center
12:09AM 32.1461 -97.1042 158° South 438 504 29,000  Level Fort Worth Center
12:10AM 32.0333 -97.0508 158° South 438 504 29,000  Level Fort Worth Center
12:11AM 31.9244 -96.9997 161° South 430 495 29,000  Level Fort Worth Center
12:11AM 31.8503 -96.9689 158° South 440 506 29,000  Level Houston Center
12:12AM 31.7542 -96.9222 158° South 440 506 29,000  Level Houston Center
12:13AM 31.6414 -96.8700 147° Southeast 435 501 29,000  Level Houston Center
12:14AM 31.5422 -96.7942 147° Southeast 435 501 29,000  Level Houston Center
12:15AM 31.4408 -96.7158 148° Southeast 435 501 29,000  Level Houston Center
12:16AM 31.3272 -96.6325 146° Southeast 441 507 29,000  Level Houston Center
12:17AM 31.2300 -96.5547 148° Southeast 436 502 29,000  Level Houston Center
12:18AM 31.1306 -96.4819 147° Southeast 430 495 29,000  Level Houston Center
12:19AM 31.0308 -96.4069 147° Southeast 425 489 29,000  Level Houston Center
12:20AM 30.9333 -96.3322 150° Southeast 425 489 29,000 -180 Level Houston Center
12:21AM 30.8111 -96.2492 143° Southeast 425 489 28,700 -1,140 Descending Houston Center
12:22AM 30.7361 -96.1828 149° Southeast 421 484 26,800 -2,400 Descending Houston Center
12:23AM 30.6158 -96.1003 145° Southeast 410 472 23,900 -2,340 Descending Houston Center
12:24AM 30.5528 -96.0494 150° Southeast 415 478 22,200 -2,280 Descending Houston Center
12:25AM 30.4547 -95.9825 148° Southeast 410 472 19,800 -2,280 Descending Houston Center
12:26AM 30.3608 -95.9136 149° Southeast 410 472 17,700 -2,160 Descending Houston Center
12:27AM 30.2692 -95.8497 150° Southeast 398 458 15,500 -2,100 Descending Houston Center
12:28AM 30.1811 -95.7908 153° Southeast 387 445 13,500 -2,040 Descending Houston Center
12:29AM 30.0908 -95.7367 150° Southeast 371 427 11,500 -1,740 Descending Houston Center
12:30AM 30.0050 -95.6783 150° Southeast 366 421 10,000 -960 Descending Houston Center
12:31AM 29.9314 -95.6297 152° Southeast 333 383 9,600 -1,080 Descending Houston Center
12:32AM 29.8617 -95.5864 149° Southeast 302 348 7,900 -1,560 Descending Houston Center
12:33AM 29.7919 -95.5383 152° Southeast 296 341 6,500 -1,260 Descending Houston Center
12:34AM 29.7242 -95.4975 150° Southeast 290 334 5,400 -1,320 Descending Houston Center
12:35AM 29.6567 -95.4519 145° Southeast 270 311 3,900 -1,440 Descending Houston Center
12:37AM 29.5914 -95.3994 91° East 185 213 1,900 -1,020 Descending Houston Center
12:38AM 29.5908 -95.3444 46° Northeast 134 154 1,300 -600 Descending Houston Center
12:39AM 29.6144 -95.3167 46° Northeast 122 140 700 -600 Descending Houston Center